Time;durP1;ratioP1;P1;durP2;ratioP2;P2;SDS_P1;SDS_P2;PMS_P1;PMS_P2;Temp;Humidity;BMP_temperature;BMP_pressure;BME280_temperature;BME280_humidity;BME280_pressure;Samples;Min_cycle;Max_cycle;Signal;HPM_P1;HPM_P2
2022/03/07 00:01:40;;;;;;;7.65;4.32;;;;;;;20.32;39.12;101428.84;4213871;28;20103;-46
2022/03/07 00:03:42;;;;;;;8.77;3.83;;;;;;;20.33;39.44;101424.13;4212274;28;20078;-45
2022/03/07 00:05:43;;;;;;;8.98;3.92;;;;;;;20.35;39.29;101433.06;4213183;28;20461;-45
2022/03/07 00:07:44;;;;;;;7.65;4.18;;;;;;;20.35;39.05;101424.72;4214356;28;20032;-46
2022/03/07 00:09:46;;;;;;;5.53;3.40;;;;;;;20.36;39.45;101431.94;4213990;28;20040;-46
2022/03/07 00:11:47;;;;;;;5.95;3.75;;;;;;;20.35;39.45;101421.94;4212780;28;20044;-45
2022/03/07 00:13:49;;;;;;;10.48;4.50;;;;;;;20.35;39.37;101425.56;4214133;28;20032;-43
2022/03/07 00:15:50;;;;;;;7.22;4.25;;;;;;;20.36;38.94;101429.16;4214070;28;20020;-45
2022/03/07 00:17:52;;;;;;;7.25;3.85;;;;;;;20.37;39.27;101425.28;4214359;28;20086;-45
2022/03/07 00:19:53;;;;;;;7.55;4.25;;;;;;;20.37;39.10;101430.84;4213901;28;20044;-45
2022/03/07 00:21:57;;;;;;;7.50;3.83;;;;;;;20.18;39.29;101388.72;4213800;28;20105;-45
2022/03/07 00:23:59;;;;;;;7.43;3.63;;;;;;;20.38;39.33;101430.56;4214006;28;20379;-48
2022/03/07 00:26:01;;;;;;;6.07;3.95;;;;;;;20.38;39.05;101430.56;4212174;28;20157;-46
2022/03/07 00:28:02;;;;;;;10.43;4.35;;;;;;;20.37;38.97;101433.63;4213756;28;20441;-49
2022/03/07 00:30:05;;;;;;;6.07;4.00;;;;;;;20.38;39.31;101433.34;4213925;28;20469;-47
2022/03/07 00:32:09;;;;;;;5.60;4.07;;;;;;;20.39;39.10;101434.19;4213513;28;20086;-49
2022/03/07 00:34:10;;;;;;;6.65;3.65;;;;;;;20.40;39.03;101441.44;4214091;28;20020;-48
2022/03/07 00:36:12;;;;;;;7.70;3.78;;;;;;;20.39;39.32;101439.72;4214197;28;20549;-45
2022/03/07 00:38:14;;;;;;;7.05;4.10;;;;;;;20.39;39.34;101423.06;4212675;28;20078;-47
2022/03/07 00:40:15;;;;;;;5.88;3.55;;;;;;;20.39;39.13;101428.63;4214368;28;20157;-47
2022/03/07 00:42:16;;;;;;;7.57;4.05;;;;;;;20.35;39.34;101416.38;4213516;28;20101;-44
2022/03/07 00:44:18;;;;;;;5.38;3.60;;;;;;;20.41;38.73;101418.09;4214257;28;20533;-48
2022/03/07 00:46:22;;;;;;;7.47;4.13;;;;;;;20.39;39.12;101421.13;4214314;28;20074;-47
2022/03/07 00:48:24;;;;;;;9.77;4.53;;;;;;;20.38;39.08;101411.09;4213820;28;20040;-45
2022/03/07 00:50:25;;;;;;;8.55;4.18;;;;;;;20.41;38.91;101410.59;4213587;28;20036;-46
2022/03/07 00:52:26;;;;;;;8.80;4.28;;;;;;;20.43;38.91;101413.09;4213816;28;20098;-45
2022/03/07 00:54:28;;;;;;;6.72;3.63;;;;;;;20.40;39.04;101408.06;4213972;28;20028;-44
2022/03/07 00:56:29;;;;;;;7.40;4.22;;;;;;;20.43;39.00;101402.78;4213683;28;20082;-50
2022/03/07 00:58:31;;;;;;;8.35;4.20;;;;;;;20.44;38.88;101392.53;4213626;28;20048;-52
2022/03/07 01:00:34;;;;;;;6.63;3.60;;;;;;;20.44;38.83;101398.94;4213619;28;20044;-43
2022/03/07 01:02:35;;;;;;;5.55;3.97;;;;;;;20.45;38.98;101397.81;4213672;28;20467;-47
2022/03/07 01:04:37;;;;;;;6.03;3.72;;;;;;;20.46;38.97;101390.31;4213576;28;20089;-48
2022/03/07 01:06:38;;;;;;;5.68;4.00;;;;;;;20.46;38.84;101395.88;4212692;28;20117;-46
2022/03/07 01:08:39;;;;;;;7.38;3.72;;;;;;;20.44;38.80;101390.59;4213543;28;20101;-50
2022/03/07 01:10:41;;;;;;;5.80;4.00;;;;;;;20.44;38.82;101381.44;4195615;28;20029;-45
2022/03/07 01:12:42;;;;;;;5.82;3.42;;;;;;;20.45;38.87;101397.00;4213603;28;20552;-46
2022/03/07 01:14:44;;;;;;;6.85;3.97;;;;;;;20.46;38.77;101390.31;4213541;28;20101;-48
2022/03/07 01:16:46;;;;;;;8.43;3.95;;;;;;;20.48;38.50;101393.69;4215663;28;20097;-46
2022/03/07 01:18:47;;;;;;;4.70;3.67;;;;;;;20.46;38.45;101387.53;4216950;28;20036;-47
2022/03/07 01:20:49;;;;;;;8.35;3.47;;;;;;;20.48;38.43;101389.00;4216885;28;20101;-47
2022/03/07 01:22:50;;;;;;;5.68;3.55;;;;;;;20.49;38.41;101389.84;4216592;28;20479;-46
2022/03/07 01:24:51;;;;;;;5.75;3.75;;;;;;;20.50;38.65;101391.50;4217017;28;20097;-49
2022/03/07 01:26:53;;;;;;;6.05;3.47;;;;;;;20.48;38.26;101388.13;4216702;28;20036;-49
2022/03/07 01:28:54;;;;;;;5.63;3.67;;;;;;;20.50;38.53;101385.94;4216313;28;20097;-50
2022/03/07 01:30:58;;;;;;;5.53;3.95;;;;;;;20.46;38.50;101391.16;4216244;28;20085;-46
2022/03/07 01:32:59;;;;;;;4.53;3.92;;;;;;;20.52;38.39;101394.84;4216360;28;20540;-46
2022/03/07 01:35:01;;;;;;;6.10;3.53;;;;;;;20.52;38.41;101394.84;4216505;28;20028;-46
2022/03/07 01:37:03;;;;;;;5.18;3.70;;;;;;;20.52;38.65;101403.19;4216475;28;20028;-44
2022/03/07 01:39:05;;;;;;;5.97;3.50;;;;;;;20.51;38.37;101393.16;4216341;28;20097;-46
2022/03/07 01:41:06;;;;;;;7.40;3.70;;;;;;;20.52;38.43;101397.63;4216042;28;20094;-49
2022/03/07 01:43:08;;;;;;;9.07;4.43;;;;;;;20.54;38.47;101395.44;4216176;28;20048;-45
2022/03/07 01:45:18;;;;;;;5.93;4.20;;;;;;;20.52;38.17;101411.53;4216204;28;20421;-45
2022/03/07 01:47:20;;;;;;;6.80;3.92;;;;;;;20.49;38.30;101412.06;4216444;28;20430;-45
2022/03/07 01:49:22;;;;;;;4.13;3.30;;;;;;;20.51;38.18;101421.81;4216317;28;20428;-44
2022/03/07 01:51:25;;;;;;;6.60;4.15;;;;;;;20.56;38.48;101430.19;4215703;28;20479;-44
2022/03/07 01:53:27;;;;;;;6.28;3.65;;;;;;;20.55;38.38;101422.94;4215606;28;20101;-44
2022/03/07 01:55:32;;;;;;;5.07;3.80;;;;;;;20.47;38.22;101408.66;4216109;28;20045;-48
2022/03/07 01:57:36;;;;;;;5.43;3.22;;;;;;;20.51;38.29;101420.97;4215597;28;20168;-45
2022/03/07 01:59:38;;;;;;;4.78;3.90;;;;;;;20.57;38.42;101431.00;4216199;28;20032;-44
2022/03/07 02:01:41;;;;;;;7.32;4.15;;;;;;;20.56;38.16;101419.06;4215668;28;20040;-45
2022/03/07 02:03:45;;;;;;;3.72;2.95;;;;;;;20.55;38.46;101424.91;4215860;28;20476;-44
2022/03/07 02:05:48;;;;;;;4.95;3.70;;;;;;;20.56;38.49;101407.09;4215836;28;20032;-44
2022/03/07 02:07:50;;;;;;;5.45;3.80;;;;;;;20.53;38.34;101419.63;4216048;28;20028;-43
2022/03/07 02:09:53;;;;;;;6.65;3.67;;;;;;;20.59;38.20;101428.81;4215919;28;20537;-46
2022/03/07 02:11:54;;;;;;;4.53;3.40;;;;;;;20.58;38.64;101429.09;4215813;28;20097;-46
2022/03/07 02:14:09;;;;;;;6.38;3.88;;;;;;;20.58;38.29;101431.88;4216246;28;20104;-46
2022/03/07 02:16:12;;;;;;;5.78;3.78;;;;;;;20.59;38.56;101434.38;4215902;28;20040;-43
2022/03/07 02:18:13;;;;;;;5.72;3.53;;;;;;;20.59;38.58;101428.81;4214567;28;20032;-45
2022/03/07 02:20:15;;;;;;;5.68;3.85;;;;;;;20.55;38.43;101419.34;4215175;28;20032;-49
2022/03/07 02:22:17;;;;;;;6.00;3.40;;;;;;;20.58;38.22;101427.16;4214545;28;20102;-47
2022/03/07 02:24:19;;;;;;;6.18;3.88;;;;;;;20.58;38.81;101416.03;4212105;28;20101;-50
2022/03/07 02:26:20;;;;;;;4.68;3.42;;;;;;;20.60;38.37;101424.94;4214471;28;20093;-47
2022/03/07 02:28:22;;;;;;;5.53;3.45;;;;;;;20.60;38.63;101424.09;4215030;28;20032;-44
2022/03/07 02:30:23;;;;;;;6.53;3.60;;;;;;;20.60;38.66;101422.16;4215602;28;20040;-43
2022/03/07 02:32:25;;;;;;;7.07;3.53;;;;;;;20.59;38.48;101423.25;4215158;28;20036;-47
2022/03/07 02:34:26;;;;;;;5.50;3.83;;;;;;;20.56;37.87;101421.00;4215482;28;20040;-47
2022/03/07 02:36:28;;;;;;;4.05;3.35;;;;;;;20.60;38.33;101422.16;4201253;28;20098;-45
2022/03/07 02:38:29;;;;;;;6.47;3.60;;;;;;;20.58;38.62;101427.16;4198354;28;20114;-47
2022/03/07 02:40:31;;;;;;;5.72;3.60;;;;;;;20.58;38.21;101429.94;4206416;28;20101;-50
2022/03/07 02:42:32;;;;;;;5.07;3.20;;;;;;;20.62;38.29;101444.97;4213278;28;20144;-46
2022/03/07 02:44:33;;;;;;;4.50;3.42;;;;;;;20.61;38.51;101443.28;4215084;28;20039;-48
2022/03/07 02:46:35;;;;;;;4.82;3.60;;;;;;;20.62;38.50;101438.56;4215462;28;20028;-46
2022/03/07 02:48:36;;;;;;;7.68;3.83;;;;;;;20.63;38.58;101449.44;4215652;28;20040;-44
2022/03/07 02:50:38;;;;;;;26.38;4.85;;;;;;;20.64;38.45;101451.09;4215178;28;20082;-49
2022/03/07 02:52:39;;;;;;;4.97;3.50;;;;;;;20.64;38.40;101445.53;4215385;28;20097;-46
2022/03/07 02:54:41;;;;;;;6.10;3.40;;;;;;;20.64;38.70;101445.53;4215479;28;20540;-44
2022/03/07 02:56:44;;;;;;;6.40;3.65;;;;;;;20.64;38.29;101442.75;4215472;28;20074;-48
2022/03/07 02:58:46;;;;;;;4.72;3.60;;;;;;;20.61;38.50;101437.72;4215456;28;20035;-46
2022/03/07 03:00:47;;;;;;;5.75;4.18;;;;;;;20.64;38.66;101437.19;4214951;28;20061;-51
2022/03/07 03:02:49;;;;;;;5.75;3.65;;;;;;;20.64;38.63;101434.41;4214603;28;20161;-46
2022/03/07 03:04:50;;;;;;;6.50;3.55;;;;;;;20.66;38.66;101431.34;4214157;28;20093;-47
2022/03/07 03:06:52;;;;;;;6.13;3.85;;;;;;;20.61;38.46;101426.59;4215599;28;20044;-48
2022/03/07 03:08:53;;;;;;;4.95;3.30;;;;;;;20.64;38.71;101419.69;4215173;28;20028;-46
2022/03/07 03:10:57;;;;;;;4.38;3.65;;;;;;;20.66;38.43;101423.84;4214845;28;20020;-49
2022/03/07 03:12:58;;;;;;;8.25;3.03;;;;;;;20.67;38.32;101425.53;4214810;28;20036;-46
2022/03/07 03:14:59;;;;;;;7.32;3.70;;;;;;;20.68;38.45;101426.38;4214769;28;20085;-45
2022/03/07 03:17:04;;;;;;;4.70;3.72;;;;;;;20.63;38.59;101410.50;4214939;28;20040;-47
2022/03/07 03:19:09;;;;;;;5.55;3.47;;;;;;;20.70;38.54;101422.22;4214472;28;20101;-48
2022/03/07 03:21:11;;;;;;;5.38;3.38;;;;;;;20.68;38.43;101420.81;4214920;28;20036;-44
2022/03/07 03:23:12;;;;;;;6.95;3.50;;;;;;;20.69;38.65;101422.50;4214932;28;20115;-44
2022/03/07 03:25:16;;;;;;;5.93;3.30;;;;;;;20.69;38.48;101423.31;4214032;28;20491;-48
2022/03/07 03:27:18;;;;;;;7.03;4.00;;;;;;;20.71;38.47;101415.56;4196422;28;20037;-47
2022/03/07 03:29:19;;;;;;;5.97;3.83;;;;;;;20.68;38.79;101412.47;4207956;28;20040;-47
2022/03/07 03:31:21;;;;;;;9.88;3.97;;;;;;;20.71;40.02;101420.25;4195573;28;20098;-47
2022/03/07 03:33:25;;;;;;;7.88;4.03;;;;;;;20.72;40.35;101416.41;4212566;28;20039;-45
2022/03/07 03:35:27;;;;;;;7.77;3.80;;;;;;;20.73;41.82;101424.47;4214125;28;20418;-43
2022/03/07 03:37:28;;;;;;;8.25;3.88;;;;;;;20.74;42.76;101417.78;4213997;28;20304;-44
2022/03/07 03:39:29;;;;;;;7.18;3.80;;;;;;;20.77;43.27;101414.47;4214198;28;20105;-46
2022/03/07 03:41:31;;;;;;;10.02;5.22;;;;;;;20.78;44.35;101415.31;4214138;28;20020;-44
2022/03/07 03:43:32;;;;;;;8.02;3.88;;;;;;;20.77;44.86;101422.81;4213853;28;20031;-48
2022/03/07 03:45:34;;;;;;;7.90;4.05;;;;;;;20.79;45.78;101420.59;4214126;28;20055;-46
2022/03/07 03:47:38;;;;;;;6.45;4.22;;;;;;;20.78;45.67;101424.50;4214036;28;20040;-45
2022/03/07 03:49:42;;;;;;;8.65;3.78;;;;;;;20.84;46.13;101424.53;4214514;28;20036;-45
2022/03/07 03:51:50;;;;;;;13.20;4.53;;;;;;;20.83;46.06;101422.84;4213904;28;20036;-43
2022/03/07 03:53:51;;;;;;;8.32;3.72;;;;;;;20.83;46.30;101422.84;4213827;28;20108;-44
2022/03/07 03:55:53;;;;;;;8.20;3.75;;;;;;;20.83;46.05;101422.84;4214061;28;20047;-46
2022/03/07 03:57:57;;;;;;;7.47;3.40;;;;;;;20.88;46.00;101425.66;4213909;28;20051;-45
2022/03/07 03:59:59;;;;;;;6.95;3.80;;;;;;;20.89;45.99;101427.34;4214540;28;20109;-46
2022/03/07 04:02:01;;;;;;;7.57;4.13;;;;;;;20.88;45.36;101428.44;4213863;28;20074;-44
2022/03/07 04:04:03;;;;;;;9.45;3.65;;;;;;;20.87;45.81;101419.28;4214512;28;20027;-52
2022/03/07 04:06:06;;;;;;;6.20;4.05;;;;;;;20.89;45.79;101421.78;4214637;28;20044;-49
2022/03/07 04:08:07;;;;;;;7.43;4.05;;;;;;;20.89;45.24;101419.84;4214171;28;20406;-45
2022/03/07 04:10:10;;;;;;;8.07;3.78;;;;;;;20.88;45.32;101414.53;4214043;28;20437;-48
2022/03/07 04:12:11;;;;;;;9.07;4.30;;;;;;;20.90;45.28;101413.19;4213910;28;20094;-45
2022/03/07 04:14:14;;;;;;;8.57;3.78;;;;;;;20.90;45.24;101412.34;4214350;28;20052;-47
2022/03/07 04:16:16;;;;;;;7.18;3.95;;;;;;;20.90;44.95;101412.34;4214480;28;20097;-45
2022/03/07 04:18:17;;;;;;;6.50;3.67;;;;;;;20.89;44.85;101410.66;4212671;28;20044;-47
2022/03/07 04:20:18;;;;;;;6.63;3.85;;;;;;;20.91;44.76;101416.78;4214020;28;20044;-45
2022/03/07 04:22:20;;;;;;;6.65;3.70;;;;;;;20.92;44.38;101408.16;4212960;28;20078;-46
2022/03/07 04:24:24;;;;;;;7.53;3.58;;;;;;;20.92;44.49;101405.38;4214556;28;20044;-45
2022/03/07 04:26:26;;;;;;;7.87;4.00;;;;;;;20.94;44.10;101413.47;4214183;28;20032;-43
2022/03/07 04:28:27;;;;;;;7.57;3.78;;;;;;;20.94;44.11;101419.03;4214381;28;20319;-48
2022/03/07 04:30:28;;;;;;;8.93;3.50;;;;;;;20.94;43.45;101413.47;4213677;28;20097;-48
2022/03/07 04:32:30;;;;;;;7.43;3.70;;;;;;;20.94;43.42;101430.19;4213719;28;20024;-49
2022/03/07 04:34:32;;;;;;;11.82;3.97;;;;;;;20.94;43.55;101414.31;4213895;28;20032;-44
2022/03/07 04:36:35;;;;;;;8.90;3.63;;;;;;;20.94;43.61;101403.19;4213801;28;20090;-43
2022/03/07 04:38:37;;;;;;;10.18;4.25;;;;;;;20.95;43.04;101395.69;4214244;28;20437;-46
2022/03/07 04:40:39;;;;;;;11.70;4.22;;;;;;;20.96;43.23;101383.44;4213200;28;20040;-45
2022/03/07 04:42:42;;;;;;;4.50;3.38;;;;;;;20.96;43.10;101375.09;4213089;28;20089;-47
2022/03/07 04:44:44;;;;;;;7.82;3.50;;;;;;;20.96;42.72;101372.31;4212218;28;20036;-49
2022/03/07 04:46:45;;;;;;;5.03;3.55;;;;;;;20.97;42.67;101371.19;4213541;28;20036;-45
2022/03/07 04:48:47;;;;;;;6.35;3.65;;;;;;;20.97;42.40;101358.13;4210498;28;20098;-43
2022/03/07 04:50:48;;;;;;;6.13;3.30;;;;;;;20.97;42.48;101368.41;4213548;28;20032;-47
2022/03/07 04:52:50;;;;;;;5.32;3.78;;;;;;;20.91;42.28;101366.72;4217305;28;20032;-47
2022/03/07 04:54:54;;;;;;;22.00;4.00;;;;;;;20.96;42.52;101383.44;4217433;28;20032;-45
2022/03/07 04:56:59;;;;;;;8.07;3.60;;;;;;;20.97;42.23;101383.16;4216714;28;20105;-45
2022/03/07 04:59:00;;;;;;;6.88;3.40;;;;;;;20.98;41.90;101387.63;4216354;28;20437;-47
2022/03/07 05:01:02;;;;;;;6.75;3.53;;;;;;;20.99;41.79;101374.56;4215679;28;20410;-46
2022/03/07 05:03:04;;;;;;;6.47;3.58;;;;;;;20.98;41.85;101364.50;4217132;28;20040;-45
2022/03/07 05:05:08;;;;;;;8.20;3.72;;;;;;;20.94;41.96;101352.28;4212622;28;20441;-45
2022/03/07 05:07:09;;;;;;;5.57;3.03;;;;;;;20.99;41.84;101364.25;4199299;28;20037;-45
2022/03/07 05:09:11;;;;;;;5.28;3.17;;;;;;;20.97;41.86;101352.56;4216558;28;20024;-46
2022/03/07 05:11:12;;;;;;;5.80;3.60;;;;;;;21.00;41.54;101360.38;4216325;28;20029;-46
2022/03/07 05:13:14;;;;;;;7.13;3.95;;;;;;;21.00;41.66;101345.63;4216920;28;20048;-45
2022/03/07 05:15:16;;;;;;;6.45;3.97;;;;;;;21.00;41.43;101357.59;4217235;28;20036;-45
2022/03/07 05:17:17;;;;;;;7.70;4.10;;;;;;;21.01;41.45;101358.41;4216719;28;20108;-48
2022/03/07 05:19:19;;;;;;;8.05;3.40;;;;;;;21.00;41.45;101356.75;4217157;28;20036;-44
2022/03/07 05:21:21;;;;;;;6.47;3.47;;;;;;;20.97;41.30;101351.72;4216714;28;20032;-44
2022/03/07 05:23:23;;;;;;;7.80;3.70;;;;;;;20.96;41.32;101344.47;4214747;28;20101;-45
2022/03/07 05:25:27;;;;;;;7.80;3.65;;;;;;;21.00;41.19;101345.63;4216523;28;20093;-43
2022/03/07 05:27:28;;;;;;;7.18;3.35;;;;;;;21.00;41.28;101351.19;4215740;28;20028;-44
2022/03/07 05:29:30;;;;;;;5.63;3.20;;;;;;;21.02;40.80;101354.50;4216758;28;20484;-47
2022/03/07 05:31:32;;;;;;;5.47;3.42;;;;;;;20.99;41.24;101338.38;4215226;28;20039;-45
2022/03/07 05:33:33;;;;;;;5.88;3.55;;;;;;;21.02;41.30;101340.59;4215756;28;20048;-45
2022/03/07 05:35:38;;;;;;;4.60;3.72;;;;;;;21.00;40.89;101323.38;4216434;28;20536;-46
2022/03/07 05:37:40;;;;;;;6.18;4.03;;;;;;;21.01;41.00;101325.03;4215231;28;20036;-42
2022/03/07 05:39:41;;;;;;;5.50;3.50;;;;;;;20.99;40.62;101332.81;4216331;28;20441;-46
2022/03/07 05:41:43;;;;;;;7.22;3.50;;;;;;;21.01;40.73;101341.72;4216036;28;20081;-49
2022/03/07 05:43:44;;;;;;;5.85;3.25;;;;;;;21.02;40.91;101343.38;4216447;28;20471;-45
2022/03/07 05:45:45;;;;;;;6.50;3.13;;;;;;;20.99;40.93;101327.25;4216211;28;20525;-43
2022/03/07 05:47:47;;;;;;;4.93;3.33;;;;;;;20.98;40.65;101323.66;4216404;28;20049;-48
2022/03/07 05:49:48;;;;;;;6.72;3.50;;;;;;;20.97;40.78;101304.41;4216214;28;20108;-42
2022/03/07 05:51:50;;;;;;;5.75;3.25;;;;;;;20.99;40.63;101316.13;4216061;28;20402;-44
2022/03/07 05:53:52;;;;;;;5.93;3.35;;;;;;;20.99;40.91;101311.41;4215328;28;20048;-46
2022/03/07 05:55:56;;;;;;;5.78;3.95;;;;;;;20.99;40.99;101299.44;4214925;28;20450;-44
2022/03/07 05:58:00;;;;;;;5.95;3.15;;;;;;;20.98;40.58;101292.19;4216042;28;20036;-44
2022/03/07 06:00:04;;;;;;;6.50;3.85;;;;;;;21.00;40.68;101303.88;4216328;28;20040;-47
2022/03/07 06:02:05;;;;;;;6.70;3.33;;;;;;;20.99;40.67;101305.00;4215163;28;20533;-49
2022/03/07 06:04:08;;;;;;;6.38;4.13;;;;;;;21.01;40.88;101311.13;4215163;28;20338;-43
2022/03/07 06:06:12;;;;;;;6.07;3.90;;;;;;;21.01;40.75;101322.25;4215982;28;20036;-48
2022/03/07 06:08:13;;;;;;;3.83;3.42;;;;;;;21.02;40.60;101326.69;4215772;28;20028;-43
2022/03/07 06:10:15;;;;;;;4.30;3.33;;;;;;;21.00;41.09;101323.38;4215403;28;20040;-47
2022/03/07 06:12:17;;;;;;;5.90;3.55;;;;;;;20.99;40.91;101318.91;4215271;28;20044;-48
2022/03/07 06:14:18;;;;;;;4.85;3.70;;;;;;;20.96;40.59;101311.09;4215536;28;20052;-49
2022/03/07 06:16:20;;;;;;;7.07;3.72;;;;;;;20.97;40.75;101315.53;4215575;28;20036;-47
2022/03/07 06:18:25;;;;;;;4.80;3.47;;;;;;;21.00;40.87;101328.94;4215503;28;20545;-44
2022/03/07 06:20:27;;;;;;;5.95;3.58;;;;;;;20.99;41.17;101321.69;4215301;28;20548;-49
2022/03/07 06:22:28;;;;;;;4.50;3.50;;;;;;;21.02;40.58;101337.81;4215287;28;20032;-47
2022/03/07 06:24:30;;;;;;;6.70;4.00;;;;;;;21.02;40.88;101326.69;4215023;28;20044;-44
2022/03/07 06:26:35;;;;;;;4.20;3.70;;;;;;;21.03;40.83;101329.22;4215488;28;20070;-44
2022/03/07 06:28:37;;;;;;;12.57;3.60;;;;;;;21.01;40.90;101319.47;4215083;28;20048;-50
2022/03/07 06:30:38;;;;;;;5.82;3.40;;;;;;;21.01;41.08;101319.47;4215159;28;20044;-43
2022/03/07 06:32:40;;;;;;;6.47;3.75;;;;;;;21.01;40.96;101309.16;4214984;28;20563;-43
2022/03/07 06:34:41;;;;;;;4.60;3.40;;;;;;;21.03;40.43;101311.69;4215396;28;20185;-46
2022/03/07 06:36:46;;;;;;;4.93;3.17;;;;;;;21.02;41.07;101332.25;4215040;28;20048;-46
2022/03/07 06:38:47;;;;;;;4.80;3.42;;;;;;;21.01;40.63;101322.25;4215050;28;20048;-44
2022/03/07 06:40:48;;;;;;;6.72;3.15;;;;;;;21.00;40.82;101306.66;4213560;28;20461;-45
2022/03/07 06:42:50;;;;;;;4.80;3.70;;;;;;;21.02;40.86;101288.56;4213605;28;20040;-45
2022/03/07 06:44:52;;;;;;;6.35;3.72;;;;;;;21.03;40.47;101281.09;4214762;28;20036;-46
2022/03/07 06:46:54;;;;;;;5.55;3.05;;;;;;;21.02;40.19;101276.63;4215007;28;20035;-45
2022/03/07 06:48:55;;;;;;;5.22;3.72;;;;;;;21.04;40.60;101274.41;4215025;28;20045;-44
2022/03/07 06:50:59;;;;;;;4.95;3.55;;;;;;;21.02;40.18;101271.88;4214867;28;20039;-44
2022/03/07 06:53:01;;;;;;;5.27;3.00;;;;;;;20.98;40.47;101258.78;4214992;28;20031;-47
2022/03/07 06:55:03;;;;;;;4.78;3.10;;;;;;;21.03;40.54;101267.19;4215182;28;20073;-44
2022/03/07 06:57:05;;;;;;;5.32;3.25;;;;;;;21.05;40.69;101270.50;4215007;28;20044;-47
2022/03/07 06:59:06;;;;;;;4.78;3.28;;;;;;;21.04;40.02;101268.84;4214567;28;20097;-45
2022/03/07 07:01:07;;;;;;;5.07;3.33;;;;;;;21.01;40.68;101281.34;4214515;28;20040;-46
2022/03/07 07:03:09;;;;;;;4.65;3.10;;;;;;;21.04;40.64;101285.53;4214535;28;20104;-43
2022/03/07 07:05:12;;;;;;;6.35;3.40;;;;;;;21.03;40.63;101290.28;4214964;28;20048;-42
2022/03/07 07:07:15;;;;;;;4.85;3.45;;;;;;;21.05;40.18;101281.63;4214804;28;20061;-45
2022/03/07 07:09:20;;;;;;;5.75;3.63;;;;;;;21.02;40.45;101282.19;4214810;28;20043;-44
2022/03/07 07:11:24;;;;;;;4.38;3.05;;;;;;;21.04;40.54;101286.38;4216934;28;20040;-44
2022/03/07 07:13:26;;;;;;;11.07;3.45;;;;;;;21.06;40.31;101286.09;4213061;28;20043;-44
2022/03/07 07:15:27;;;;;;;5.35;3.70;;;;;;;21.06;40.17;101288.88;4214828;28;20101;-43
2022/03/07 07:17:29;;;;;;;5.15;4.10;;;;;;;21.06;40.19;101280.53;4214362;28;20043;-45
2022/03/07 07:19:33;;;;;;;4.93;3.22;;;;;;;21.08;40.29;101286.66;4214653;28;20035;-44
2022/03/07 07:21:34;;;;;;;6.43;3.53;;;;;;;21.06;40.34;101273.00;4214537;28;20040;-44
2022/03/07 07:23:37;;;;;;;6.90;3.60;;;;;;;21.06;40.62;101281.34;4214934;28;20182;-45
2022/03/07 07:25:38;;;;;;;5.68;3.70;;;;;;;21.07;40.46;101282.19;4214368;28;20044;-43
2022/03/07 07:27:40;;;;;;;4.88;3.33;;;;;;;21.08;39.93;101281.09;4214329;28;20077;-44
2022/03/07 07:29:41;;;;;;;5.88;3.40;;;;;;;21.08;39.98;101281.09;4214394;28;20096;-42
2022/03/07 07:31:42;;;;;;;5.43;3.63;;;;;;;21.07;40.31;101284.97;4214003;28;20442;-44
2022/03/07 07:33:44;;;;;;;5.05;3.53;;;;;;;21.05;40.59;101293.59;4214726;28;20044;-44
2022/03/07 07:35:45;;;;;;;7.80;4.20;;;;;;;21.06;40.30;101300.00;4214266;28;20044;-43
2022/03/07 07:37:48;;;;;;;5.35;3.15;;;;;;;21.04;40.42;101297.50;4214268;28;20043;-43
2022/03/07 07:39:50;;;;;;;4.85;3.70;;;;;;;21.04;40.46;101291.09;4214464;28;20074;-44
2022/03/07 07:41:51;;;;;;;8.25;3.85;;;;;;;21.06;40.12;101288.88;4214050;28;20090;-47
2022/03/07 07:43:56;;;;;;;5.07;3.45;;;;;;;21.04;40.36;101286.38;4214330;28;20036;-45
2022/03/07 07:45:57;;;;;;;5.13;4.00;;;;;;;21.03;40.29;101279.13;4214042;28;20119;-44
2022/03/07 07:48:02;;;;;;;6.97;3.60;;;;;;;21.04;40.20;101279.97;4214441;28;20426;-44
2022/03/07 07:50:06;;;;;;;5.55;3.40;;;;;;;21.02;40.42;101277.44;4214554;28;20073;-47
2022/03/07 07:52:08;;;;;;;5.43;3.63;;;;;;;21.02;40.44;101265.47;4213335;28;20081;-43
2022/03/07 07:54:09;;;;;;;5.10;3.28;;;;;;;21.02;40.48;101265.47;4213778;28;20040;-51
2022/03/07 07:56:11;;;;;;;4.53;3.42;;;;;;;21.01;40.33;101250.75;4214137;28;20073;-43
2022/03/07 07:58:13;;;;;;;5.72;3.38;;;;;;;21.04;40.27;101249.38;4214258;28;20032;-42
2022/03/07 08:00:19;;;;;;;5.18;3.25;;;;;;;21.04;40.47;101243.81;4215051;28;20036;-44
2022/03/07 08:02:21;;;;;;;5.50;3.50;;;;;;;21.04;40.21;101243.81;4213580;28;20024;-46
2022/03/07 08:04:22;;;;;;;4.28;3.17;;;;;;;21.07;39.88;101251.59;4213968;28;20020;-45
2022/03/07 08:06:25;;;;;;;4.05;3.10;;;;;;;21.04;40.03;101239.06;4214126;28;20028;-42
2022/03/07 08:08:27;;;;;;;6.25;3.65;;;;;;;21.07;40.18;101246.00;4214128;28;20097;-43
2022/03/07 08:10:34;;;;;;;4.00;3.47;;;;;;;21.04;40.20;101246.59;4214120;28;20028;-46
2022/03/07 08:12:35;;;;;;;4.75;3.33;;;;;;;21.09;39.86;101254.09;4213445;28;20251;-43
2022/03/07 08:14:37;;;;;;;8.80;4.22;;;;;;;21.10;40.01;101255.78;4213711;28;20438;-44
2022/03/07 08:16:38;;;;;;;4.22;3.33;;;;;;;21.04;39.90;101241.03;4213733;28;20044;-43
2022/03/07 08:18:42;;;;;;;4.10;3.08;;;;;;;21.06;39.58;101239.63;4213495;28;20093;-42
2022/03/07 08:20:44;;;;;;;5.15;3.60;;;;;;;21.08;39.92;101242.16;4213461;28;20113;-46
2022/03/07 08:22:46;;;;;;;3.47;3.15;;;;;;;21.09;39.96;101238.25;4213731;28;20168;-45
2022/03/07 08:24:47;;;;;;;3.72;3.25;;;;;;;21.09;39.86;101227.13;4213735;28;20048;-45
2022/03/07 08:26:49;;;;;;;4.30;3.33;;;;;;;21.09;39.65;101235.47;4216151;28;20040;-44
2022/03/07 08:28:52;;;;;;;3.92;2.95;;;;;;;21.09;39.60;101243.81;4216952;28;20040;-45
2022/03/07 08:30:54;;;;;;;4.50;3.65;;;;;;;21.10;39.74;101244.66;4216668;28;20621;-43
2022/03/07 08:32:56;;;;;;;4.38;3.75;;;;;;;21.08;39.47;101244.94;4217181;28;20467;-48
2022/03/07 08:34:57;;;;;;;4.18;3.38;;;;;;;21.08;39.59;101242.16;4215803;28;20113;-44
2022/03/07 08:36:59;;;;;;;4.72;3.22;;;;;;;21.09;40.10;101260.50;4217123;28;20472;-42
2022/03/07 08:39:00;;;;;;;4.95;3.33;;;;;;;21.07;39.62;101257.16;4216656;28;20043;-49
2022/03/07 08:41:02;;;;;;;4.30;3.40;;;;;;;21.07;39.61;101251.59;4213847;28;20036;-43
2022/03/07 08:43:03;;;;;;;4.90;3.30;;;;;;;21.07;39.77;101246.00;4207887;28;20052;-45
2022/03/07 08:45:06;;;;;;;4.57;3.13;;;;;;;21.07;39.61;101240.44;4216969;28;20040;-43
2022/03/07 08:47:09;;;;;;;5.03;3.30;;;;;;;21.09;39.59;101229.06;4215607;28;20044;-44
2022/03/07 08:49:10;;;;;;;4.05;3.30;;;;;;;21.10;39.48;101222.38;4216959;28;20032;-46
2022/03/07 08:51:14;;;;;;;5.15;3.08;;;;;;;21.03;39.54;101209.59;4216834;28;20061;-46
2022/03/07 08:53:17;;;;;;;3.83;3.20;;;;;;;21.06;39.35;101210.97;4216950;28;20036;-44
2022/03/07 08:55:18;;;;;;;4.13;3.05;;;;;;;21.10;39.63;101217.66;4217230;28;20545;-43
2022/03/07 08:57:22;;;;;;;4.75;3.10;;;;;;;21.09;39.36;101212.38;4215970;28;20032;-46
2022/03/07 08:59:27;;;;;;;4.03;3.08;;;;;;;21.09;39.64;101210.41;4216961;28;20487;-44
2022/03/07 09:01:28;;;;;;;3.67;3.10;;;;;;;21.08;39.62;101219.88;4216929;28;20040;-45
2022/03/07 09:03:30;;;;;;;4.72;3.22;;;;;;;21.09;39.50;101221.56;4216906;28;20036;-43
2022/03/07 09:05:32;;;;;;;4.28;3.15;;;;;;;21.09;39.14;101213.19;4216964;28;20040;-45
2022/03/07 09:07:36;;;;;;;4.50;3.50;;;;;;;21.10;39.24;101214.88;4216912;28;20070;-44
2022/03/07 09:09:38;;;;;;;4.50;3.30;;;;;;;21.11;39.08;101210.97;4216684;28;20040;-44
2022/03/07 09:11:39;;;;;;;4.55;3.10;;;;;;;21.11;39.36;101208.19;4216495;28;20032;-45
2022/03/07 09:13:41;;;;;;;3.08;2.72;;;;;;;21.10;39.20;101212.09;4216656;28;20048;-45
2022/03/07 09:15:45;;;;;;;3.50;3.20;;;;;;;21.11;39.15;101219.31;4216868;28;20028;-44
2022/03/07 09:17:47;;;;;;;3.90;3.42;;;;;;;21.12;39.29;101221.00;4216385;28;20048;-44
2022/03/07 09:19:48;;;;;;;5.32;3.53;;;;;;;21.11;39.22;101210.97;4216610;28;20434;-46
2022/03/07 09:21:52;;;;;;;4.80;3.08;;;;;;;21.05;39.17;101198.16;4216321;28;20078;-42
2022/03/07 09:23:54;;;;;;;4.20;3.80;;;;;;;21.10;39.46;101223.22;4216933;28;20475;-44
2022/03/07 09:25:55;;;;;;;4.35;3.17;;;;;;;21.08;39.73;101219.06;4216876;28;20273;-45
2022/03/07 09:27:56;;;;;;;4.38;3.85;;;;;;;21.09;39.52;101216.00;4216700;28;20048;-45